Time;durP1;ratioP1;P1;durP2;ratioP2;P2;SDS_P1;SDS_P2;PMS_P1;PMS_P2;Temp;Humidity;BMP_temperature;BMP_pressure;BME280_temperature;BME280_humidity;BME280_pressure;Samples;Min_cycle;Max_cycle;Signal;HPM_P1;HPM_P2
2023/03/03 00:00:13;;;;;;;;;;;;;;;;;;5076575;28;19912;-82
2023/03/03 00:02:39;;;;;;;;;;;;;;;;;;5075022;28;20086;-82
2023/03/03 00:05:05;;;;;;;;;;;;;;;;;;5084991;28;19921;-83
2023/03/03 00:07:30;;;;;;;;;;;;;;;;;;5083562;28;19916;-83
2023/03/03 00:09:57;;;;;;;;;;;;;;;;;;5090797;28;20224;-82
2023/03/03 00:12:23;;;;;;;;;;;;;;;;;;5091552;28;20391;-83
2023/03/03 00:14:49;;;;;;;;;;;;;;;;;;5071622;28;19912;-83
2023/03/03 00:17:15;;;;;;;;;;;;;;;;;;5090936;28;19955;-82
2023/03/03 00:19:46;;;;;;;;;;;;;;;;;;5091044;28;20307;-82
2023/03/03 00:22:12;;;;;;;;;;;;;;;;;;5091545;28;20006;-83
2023/03/03 00:24:38;;;;;;;;;;;;;;;;;;5090787;28;19920;-83
2023/03/03 00:27:04;;;;;;;;;;;;;;;;;;5090704;28;19951;-83
2023/03/03 00:29:30;;;;;;;;;;;;;;;;;;5084512;28;19951;-84
2023/03/03 00:31:56;;;;;;;;;;;;;;;;;;5090400;28;20003;-82
2023/03/03 00:34:22;;;;;;;;;;;;;;;;;;5086704;28;20168;-83
2023/03/03 00:36:48;;;;;;;;;;;;;;;;;;5073205;28;20303;-83
2023/03/03 00:39:14;;;;;;;;;;;;;;;;;;5073495;28;19916;-83
2023/03/03 00:41:40;;;;;;;;;;;;;;;;;;5052171;28;19975;-83
2023/03/03 00:44:06;;;;;;;;;;;;;;;;;;5071549;28;19912;-83
2023/03/03 00:46:32;;;;;;;;;;;;;;;;;;5073590;28;19927;-83
2023/03/03 00:48:58;;;;;;;;;;;;;;;;;;5075097;28;19923;-83
2023/03/03 00:51:23;;;;;;;;;;;;;;;;;;5079828;28;19926;-83
2023/03/03 00:53:49;;;;;;;;;;;;;;;;;;5077406;28;19927;-84
2023/03/03 00:56:15;;;;;;;;;;;;;;;;;;5076824;28;20408;-83
2023/03/03 00:58:44;;;;;;;;;;;;;;;;;;5081735;28;19916;-83
2023/03/03 01:01:10;;;;;;;;;;;;;;;;;;5058448;28;19927;-83
2023/03/03 01:03:42;;;;;;;;;;;;;;;;;;5076957;28;19912;-83
2023/03/03 01:06:08;;;;;;;;;;;;;;;;;;5094538;28;19919;-83
2023/03/03 01:08:34;;;;;;;;;;;;;;;;;;5089100;28;19916;-83
2023/03/03 01:11:00;;;;;;;;;;;;;;;;;;5094861;28;19923;-83
2023/03/03 01:13:26;;;;;;;;;;;;;;;;;;5076856;28;20274;-83
2023/03/03 01:15:52;;;;;;;;;;;;;;;;;;5095188;28;20094;-83
2023/03/03 01:18:18;;;;;;;;;;;;;;;;;;5058783;28;19900;-83
2023/03/03 01:20:44;;;;;;;;;;;;;;;;;;5075826;28;19941;-82
2023/03/03 01:23:11;;;;;;;;;;;;;;;;;;5059363;28;19920;-82
2023/03/03 01:25:37;;;;;;;;;;;;;;;;;;5093488;28;19913;-82
2023/03/03 01:28:04;;;;;;;;;;;;;;;;;;5093366;28;20444;-82
2023/03/03 01:30:30;;;;;;;;;;;;;;;;;;5075621;28;19963;-82
2023/03/03 01:32:56;;;;;;;;;;;;;;;;;;5093366;28;19937;-82
2023/03/03 01:35:22;;;;;;;;;;;;;;;;;;5093918;28;19920;-82
2023/03/03 01:37:48;;;;;;;;;;;;;;;;;;5092483;28;19912;-82
2023/03/03 01:40:14;;;;;;;;;;;;;;;;;;5074014;28;20034;-82
2023/03/03 01:42:40;;;;;;;;;;;;;;;;;;5092617;28;19990;-82
2023/03/03 01:45:06;;;;;;;;;;;;;;;;;;5093685;28;19939;-83
2023/03/03 01:47:32;;;;;;;;;;;;;;;;;;5074574;28;19912;-82
2023/03/03 01:49:58;;;;;;;;;;;;;;;;;;5092988;28;20245;-82
2023/03/03 01:52:26;;;;;;;;;;;;;;;;;;5096576;28;19962;-81
2023/03/03 01:54:52;;;;;;;;;;;;;;;;;;5074455;28;19924;-82
2023/03/03 01:57:18;;;;;;;;;;;;;;;;;;5070792;28;20398;-82
2023/03/03 01:59:44;;;;;;;;;;;;;;;;;;5072885;28;19928;-82
2023/03/03 02:02:10;;;;;;;;;;;;;;;;;;5073317;28;19931;-82
2023/03/03 02:04:36;;;;;;;;;;;;;;;;;;5073555;28;19912;-83
2023/03/03 02:07:03;;;;;;;;;;;;;;;;;;5055970;28;19920;-83
2023/03/03 02:09:29;;;;;;;;;;;;;;;;;;5055236;28;20000;-83
2023/03/03 02:11:55;;;;;;;;;;;;;;;;;;5073512;28;20361;-84
2023/03/03 02:14:21;;;;;;;;;;;;;;;;;;5055329;28;19970;-83
2023/03/03 02:16:47;;;;;;;;;;;;;;;;;;5073007;28;19920;-83
2023/03/03 02:19:13;;;;;;;;;;;;;;;;;;5073888;28;19913;-84
2023/03/03 02:21:39;;;;;;;;;;;;;;;;;;5054932;28;19947;-83
2023/03/03 02:24:05;;;;;;;;;;;;;;;;;;5074071;28;19916;-83
2023/03/03 02:26:32;;;;;;;;;;;;;;;;;;5055923;28;20030;-84
2023/03/03 02:29:02;;;;;;;;;;;;;;;;;;5040330;28;19995;-83
2023/03/03 02:31:29;;;;;;;;;;;;;;;;;;5037326;28;20353;-84
2023/03/03 02:33:55;;;;;;;;;;;;;;;;;;5035948;28;19952;-84
2023/03/03 02:36:21;;;;;;;;;;;;;;;;;;5035898;28;20011;-84
2023/03/03 02:38:47;;;;;;;;;;;;;;;;;;5038675;28;19913;-84
2023/03/03 02:41:13;;;;;;;;;;;;;;;;;;5072645;28;19960;-84
2023/03/03 02:43:39;;;;;;;;;;;;;;;;;;5055451;28;20021;-84
2023/03/03 02:46:05;;;;;;;;;;;;;;;;;;5055468;28;19943;-84
2023/03/03 02:48:31;;;;;;;;;;;;;;;;;;5073142;28;20019;-84
2023/03/03 02:50:58;;;;;;;;;;;;;;;;;;5042863;28;19917;-84
2023/03/03 02:53:24;;;;;;;;;;;;;;;;;;5058209;28;20414;-84
2023/03/03 02:55:51;;;;;;;;;;;;;;;;;;5054751;28;20277;-84
2023/03/03 02:58:18;;;;;;;;;;;;;;;;;;5087918;28;19900;-84
2023/03/03 03:00:46;;;;;;;;;;;;;;;;;;5074170;28;20025;-84
2023/03/03 03:03:15;;;;;;;;;;;;;;;;;;5074062;28;20012;-84
2023/03/03 03:05:41;;;;;;;;;;;;;;;;;;5093230;28;19916;-84
2023/03/03 03:08:07;;;;;;;;;;;;;;;;;;5073266;28;20112;-85
2023/03/03 03:10:33;;;;;;;;;;;;;;;;;;5074701;28;20363;-84
2023/03/03 03:13:00;;;;;;;;;;;;;;;;;;5075137;28;19912;-84
2023/03/03 03:15:26;;;;;;;;;;;;;;;;;;5074727;28;19952;-84
2023/03/03 03:17:53;;;;;;;;;;;;;;;;;;5088095;28;20411;-84
2023/03/03 03:20:19;;;;;;;;;;;;;;;;;;5092599;28;20326;-84
2023/03/03 03:22:45;;;;;;;;;;;;;;;;;;5066698;28;19920;-84
2023/03/03 03:25:11;;;;;;;;;;;;;;;;;;5062882;28;19959;-84
2023/03/03 03:27:37;;;;;;;;;;;;;;;;;;5074156;28;20027;-84
2023/03/03 03:30:03;;;;;;;;;;;;;;;;;;5074719;28;19969;-81
2023/03/03 03:32:30;;;;;;;;;;;;;;;;;;5057056;28;19981;-84
2023/03/03 03:34:56;;;;;;;;;;;;;;;;;;5092553;28;19912;-84
2023/03/03 03:37:22;;;;;;;;;;;;;;;;;;5092147;28;19916;-84
2023/03/03 03:39:48;;;;;;;;;;;;;;;;;;5073800;28;20013;-84
2023/03/03 03:42:16;;;;;;;;;;;;;;;;;;5092399;28;20279;-84
2023/03/03 03:44:42;;;;;;;;;;;;;;;;;;5092818;28;19920;-84
2023/03/03 03:47:08;;;;;;;;;;;;;;;;;;5092702;28;19944;-84
2023/03/03 03:49:35;;;;;;;;;;;;;;;;;;5074701;28;19916;-84
2023/03/03 03:52:01;;;;;;;;;;;;;;;;;;5068647;28;19934;-83
2023/03/03 03:54:30;;;;;;;;;;;;;;;;;;5070230;28;19921;-84
2023/03/03 03:56:56;;;;;;;;;;;;;;;;;;5071009;28;19916;-84
2023/03/03 03:59:23;;;;;;;;;;;;;;;;;;5071047;28;19924;-84
2023/03/03 04:01:49;;;;;;;;;;;;;;;;;;5062861;28;19947;-85
2023/03/03 04:04:16;;;;;;;;;;;;;;;;;;5072187;28;19958;-84
2023/03/03 04:06:42;;;;;;;;;;;;;;;;;;5071805;28;19913;-84
2023/03/03 04:09:08;;;;;;;;;;;;;;;;;;5054101;28;19924;-84
2023/03/03 04:11:34;;;;;;;;;;;;;;;;;;5047767;28;19913;-84
2023/03/03 04:14:02;;;;;;;;;;;;;;;;;;5033906;28;19917;-84
2023/03/03 04:16:28;;;;;;;;;;;;;;;;;;5052500;28;19920;-84
2023/03/03 04:18:56;;;;;;;;;;;;;;;;;;5033789;28;19956;-84
2023/03/03 04:21:22;;;;;;;;;;;;;;;;;;5057893;28;20167;-84
2023/03/03 04:23:49;;;;;;;;;;;;;;;;;;5056910;28;19922;-83
2023/03/03 04:26:16;;;;;;;;;;;;;;;;;;5074832;28;19913;-83
2023/03/03 04:28:43;;;;;;;;;;;;;;;;;;5057056;28;20370;-83
2023/03/03 04:31:09;;;;;;;;;;;;;;;;;;5056266;28;19921;-83
2023/03/03 04:33:35;;;;;;;;;;;;;;;;;;5056385;28;19920;-84
2023/03/03 04:36:03;;;;;;;;;;;;;;;;;;5056963;28;19917;-84
2023/03/03 04:38:29;;;;;;;;;;;;;;;;;;5071763;28;20281;-84
2023/03/03 04:40:55;;;;;;;;;;;;;;;;;;5039390;28;20616;-84
2023/03/03 04:43:21;;;;;;;;;;;;;;;;;;5046126;28;19917;-83
2023/03/03 04:45:47;;;;;;;;;;;;;;;;;;5063198;28;20062;-84
2023/03/03 04:48:13;;;;;;;;;;;;;;;;;;5062016;28;19917;-84
2023/03/03 04:50:40;;;;;;;;;;;;;;;;;;5054501;28;19924;-83
2023/03/03 04:53:06;;;;;;;;;;;;;;;;;;5039344;28;20003;-82
2023/03/03 04:55:33;;;;;;;;;;;;;;;;;;5056912;28;19919;-84
2023/03/03 04:57:59;;;;;;;;;;;;;;;;;;5075772;28;19916;-83
2023/03/03 05:00:25;;;;;;;;;;;;;;;;;;5059925;28;19918;-83
2023/03/03 05:02:51;;;;;;;;;;;;;;;;;;5076629;28;19912;-82
2023/03/03 05:05:17;;;;;;;;;;;;;;;;;;5077176;28;19965;-82
2023/03/03 05:07:43;;;;;;;;;;;;;;;;;;5090851;28;19955;-83
2023/03/03 05:10:09;;;;;;;;;;;;;;;;;;5094830;28;20420;-82
2023/03/03 05:12:35;;;;;;;;;;;;;;;;;;5094560;28;19958;-82
2023/03/03 05:15:01;;;;;;;;;;;;;;;;;;5094752;28;19916;-83
2023/03/03 05:17:27;;;;;;;;;;;;;;;;;;5095128;28;19995;-83
2023/03/03 05:19:56;;;;;;;;;;;;;;;;;;5094720;28;19969;-84
2023/03/03 05:22:22;;;;;;;;;;;;;;;;;;5094042;28;20106;-84
2023/03/03 05:24:48;;;;;;;;;;;;;;;;;;5094580;28;20046;-84
2023/03/03 05:27:14;;;;;;;;;;;;;;;;;;5076695;28;20309;-84
2023/03/03 05:29:40;;;;;;;;;;;;;;;;;;5094756;28;19939;-84
2023/03/03 05:32:06;;;;;;;;;;;;;;;;;;5091872;28;19912;-84
2023/03/03 05:34:32;;;;;;;;;;;;;;;;;;5093817;28;19916;-83
2023/03/03 05:36:58;;;;;;;;;;;;;;;;;;5086741;28;19912;-84
2023/03/03 05:39:24;;;;;;;;;;;;;;;;;;5075023;28;20328;-84
2023/03/03 05:41:50;;;;;;;;;;;;;;;;;;5074933;28;19916;-84
2023/03/03 05:44:16;;;;;;;;;;;;;;;;;;5087150;28;19977;-83
2023/03/03 05:46:42;;;;;;;;;;;;;;;;;;5069912;28;20385;-84
2023/03/03 05:49:09;;;;;;;;;;;;;;;;;;5072216;28;19939;-84
2023/03/03 05:51:35;;;;;;;;;;;;;;;;;;5091771;28;19981;-84
2023/03/03 05:54:01;;;;;;;;;;;;;;;;;;5047869;28;19929;-83
2023/03/03 05:56:27;;;;;;;;;;;;;;;;;;5052347;28;20456;-83
2023/03/03 05:58:53;;;;;;;;;;;;;;;;;;5045007;28;19986;-83
2023/03/03 06:01:19;;;;;;;;;;;;;;;;;;5070943;28;19912;-84
2023/03/03 06:03:45;;;;;;;;;;;;;;;;;;5070693;28;19920;-83
2023/03/03 06:06:12;;;;;;;;;;;;;;;;;;5065864;28;19987;-84
2023/03/03 06:08:38;;;;;;;;;;;;;;;;;;5055003;28;19916;-83
2023/03/03 06:11:04;;;;;;;;;;;;;;;;;;5053785;28;19920;-84
2023/03/03 06:13:30;;;;;;;;;;;;;;;;;;5036281;28;19913;-85
2023/03/03 06:15:56;;;;;;;;;;;;;;;;;;5061154;28;19912;-84
2023/03/03 06:18:22;;;;;;;;;;;;;;;;;;5057686;28;20290;-83
2023/03/03 06:20:48;;;;;;;;;;;;;;;;;;5066635;28;19947;-82
2023/03/03 06:23:14;;;;;;;;;;;;;;;;;;5068917;28;19951;-82
2023/03/03 06:25:41;;;;;;;;;;;;;;;;;;5064909;28;19913;-82
2023/03/03 06:28:07;;;;;;;;;;;;;;;;;;5070940;28;19916;-82
2023/03/03 06:30:33;;;;;;;;;;;;;;;;;;5048111;28;20419;-82
2023/03/03 06:32:59;;;;;;;;;;;;;;;;;;5046499;28;20357;-80
2023/03/03 06:35:25;;;;;;;;;;;;;;;;;;5054819;28;19916;-83
2023/03/03 06:37:51;;;;;;;;;;;;;;;;;;5069717;28;19988;-82
2023/03/03 06:40:17;;;;;;;;;;;;;;;;;;5068786;28;20360;-82
2023/03/03 06:42:43;;;;;;;;;;;;;;;;;;5053016;28;19913;-83
2023/03/03 06:45:10;;;;;;;;;;;;;;;;;;5049833;28;20002;-82
2023/03/03 06:47:36;;;;;;;;;;;;;;;;;;5051405;28;19908;-82
2023/03/03 06:50:03;;;;;;;;;;;;;;;;;;5051970;28;19944;-83
2023/03/03 06:52:29;;;;;;;;;;;;;;;;;;5051874;28;19927;-81
2023/03/03 06:54:55;;;;;;;;;;;;;;;;;;5068883;28;19931;-81
2023/03/03 06:57:21;;;;;;;;;;;;;;;;;;5071597;28;20003;-80
2023/03/03 06:59:47;;;;;;;;;;;;;;;;;;5070993;28;20007;-80
2023/03/03 07:02:13;;;;;;;;;;;;;;;;;;5071274;28;20384;-80
2023/03/03 07:04:39;;;;;;;;;;;;;;;;;;5071284;28;19912;-80
2023/03/03 07:07:05;;;;;;;;;;;;;;;;;;5071511;28;20346;-80
2023/03/03 07:09:31;;;;;;;;;;;;;;;;;;5071174;28;19946;-80
2023/03/03 07:12:00;;;;;;;;;;;;;;;;;;5071148;28;19958;-80
2023/03/03 07:14:26;;;;;;;;;;;;;;;;;;5070829;28;19920;-82
2023/03/03 07:16:53;;;;;;;;;;;;;;;;;;5071099;28;20071;-80
2023/03/03 07:19:19;;;;;;;;;;;;;;;;;;5070737;28;20012;-80
2023/03/03 07:21:45;;;;;;;;;;;;;;;;;;5070893;28;19927;-80
2023/03/03 07:24:12;;;;;;;;;;;;;;;;;;5070425;28;20076;-81
2023/03/03 07:26:38;;;;;;;;;;;;;;;;;;5052710;28;19916;-80
2023/03/03 07:29:04;;;;;;;;;;;;;;;;;;5070512;28;20214;-80
2023/03/03 07:31:30;;;;;;;;;;;;;;;;;;5079293;28;19915;-81
2023/03/03 07:33:56;;;;;;;;;;;;;;;;;;5090833;28;19916;-80
2023/03/03 07:36:22;;;;;;;;;;;;;;;;;;5073089;28;19916;-81
2023/03/03 07:38:48;;;;;;;;;;;;;;;;;;5091639;28;19913;-81
2023/03/03 07:41:14;;;;;;;;;;;;;;;;;;5091784;28;19919;-82
2023/03/03 07:43:40;;;;;;;;;;;;;;;;;;5090872;28;20406;-81
2023/03/03 07:46:07;;;;;;;;;;;;;;;;;;5073104;28;19992;-81
2023/03/03 07:48:33;;;;;;;;;;;;;;;;;;5090994;28;19939;-82
2023/03/03 07:50:59;;;;;;;;;;;;;;;;;;5073268;28;19966;-82
2023/03/03 07:53:25;;;;;;;;;;;;;;;;;;5056386;28;19967;-82
2023/03/03 07:55:51;;;;;;;;;;;;;;;;;;5074020;28;19916;-82
2023/03/03 07:58:18;;;;;;;;;;;;;;;;;;5077091;28;19973;-82
2023/03/03 08:00:44;;;;;;;;;;;;;;;;;;5080861;28;19913;-82
2023/03/03 08:03:10;;;;;;;;;;;;;;;;;;5083297;28;19924;-80
2023/03/03 08:05:36;;;;;;;;;;;;;;;;;;5076723;28;20412;-81
2023/03/03 08:08:02;;;;;;;;;;;;;;;;;;5074325;28;19936;-81
2023/03/03 08:10:28;;;;;;;;;;;;;;;;;;5056189;28;19916;-82
2023/03/03 08:12:54;;;;;;;;;;;;;;;;;;5056199;28;20013;-82
2023/03/03 08:15:21;;;;;;;;;;;;;;;;;;5073952;28;20180;-81
2023/03/03 08:17:47;;;;;;;;;;;;;;;;;;5056182;28;20003;-81
2023/03/03 08:20:13;;;;;;;;;;;;;;;;;;5074046;28;20007;-82
2023/03/03 08:22:39;;;;;;;;;;;;;;;;;;5056340;28;20027;-82
2023/03/03 08:25:05;;;;;;;;;;;;;;;;;;5055483;28;19913;-83
2023/03/03 08:27:31;;;;;;;;;;;;;;;;;;5056183;28;19939;-82
2023/03/03 08:29:57;;;;;;;;;;;;;;;;;;5073364;28;20007;-82
2023/03/03 08:32:23;;;;;;;;;;;;;;;;;;5089205;28;20356;-81
2023/03/03 08:34:49;;;;;;;;;;;;;;;;;;5093716;28;19912;-83
2023/03/03 08:37:15;;;;;;;;;;;;;;;;;;5094285;28;19919;-82
2023/03/03 08:39:41;;;;;;;;;;;;;;;;;;5093336;28;19920;-81
2023/03/03 08:42:07;;;;;;;;;;;;;;;;;;5075754;28;19958;-81
2023/03/03 08:44:33;;;;;;;;;;;;;;;;;;5094356;28;19918;-80
2023/03/03 08:47:00;;;;;;;;;;;;;;;;;;5094602;28;19916;-82
2023/03/03 08:49:26;;;;;;;;;;;;;;;;;;5094621;28;19916;-82
2023/03/03 08:51:52;;;;;;;;;;;;;;;;;;5094321;28;20499;-82
2023/03/03 08:54:18;;;;;;;;;;;;;;;;;;5093496;28;20259;-82
2023/03/03 08:56:44;;;;;;;;;;;;;;;;;;5094352;28;19912;-81
2023/03/03 08:59:11;;;;;;;;;;;;;;;;;;5076129;28;20432;-81
2023/03/03 09:01:37;;;;;;;;;;;;;;;;;;5093784;28;19912;-82
2023/03/03 09:04:03;;;;;;;;;;;;;;;;;;5093830;28;19912;-81
2023/03/03 09:06:29;;;;;;;;;;;;;;;;;;5093217;28;20400;-81
2023/03/03 09:08:55;;;;;;;;;;;;;;;;;;5075881;28;19919;-81
2023/03/03 09:11:21;;;;;;;;;;;;;;;;;;5093797;28;20077;-82
2023/03/03 09:13:52;;;;;;;;;;;;;;;;;;5093702;28;19913;-82
2023/03/03 09:16:19;;;;;;;;;;;;;;;;;;5093968;28;19912;-82
2023/03/03 09:18:45;;;;;;;;;;;;;;;;;;5093929;28;19919;-82
2023/03/03 09:21:13;;;;;;;;;;;;;;;;;;5075266;28;19916;-82
2023/03/03 09:23:39;;;;;;;;;;;;;;;;;;5075128;28;20437;-82
2023/03/03 09:26:05;;;;;;;;;;;;;;;;;;5075252;28;19919;-82
2023/03/03 09:28:31;;;;;;;;;;;;;;;;;;5093199;28;20350;-82
2023/03/03 09:30:57;;;;;;;;;;;;;;;;;;5074997;28;20032;-81
2023/03/03 09:33:23;;;;;;;;;;;;;;;;;;5093459;28;20418;-81
2023/03/03 09:35:49;;;;;;;;;;;;;;;;;;5093104;28;19912;-82
2023/03/03 09:38:15;;;;;;;;;;;;;;;;;;5093313;28;19969;-82
2023/03/03 09:40:41;;;;;;;;;;;;;;;;;;5093279;28;20249;-81
2023/03/03 09:43:07;;;;;;;;;;;;;;;;;;5093261;28;19912;-82
2023/03/03 09:45:33;;;;;;;;;;;;;;;;;;5092710;28;19923;-82
2023/03/03 09:47:59;;;;;;;;;;;;;;;;;;5074910;28;19912;-80
2023/03/03 09:50:25;;;;;;;;;;;;;;;;;;5074653;28;19989;-81
2023/03/03 09:52:52;;;;;;;;;;;;;;;;;;5092382;28;20330;-80
2023/03/03 09:55:18;;;;;;;;;;;;;;;;;;5092437;28;20277;-81
2023/03/03 09:57:44;;;;;;;;;;;;;;;;;;5073890;28;19908;-81
2023/03/03 10:00:10;;;;;;;;;;;;;;;;;;5092213;28;19912;-80
2023/03/03 10:02:39;;;;;;;;;;;;;;;;;;5074183;28;20396;-82
2023/03/03 10:05:05;;;;;;;;;;;;;;;;;;5091891;28;19912;-81
2023/03/03 10:07:34;;;;;;;;;;;;;;;;;;5074651;28;19924;-81
2023/03/03 10:10:00;;;;;;;;;;;;;;;;;;5074320;28;20423;-81
2023/03/03 10:12:26;;;;;;;;;;;;;;;;;;5092347;28;19912;-81
2023/03/03 10:14:52;;;;;;;;;;;;;;;;;;5091994;28;20188;-81
2023/03/03 10:17:18;;;;;;;;;;;;;;;;;;5092458;28;20385;-81
2023/03/03 10:19:45;;;;;;;;;;;;;;;;;;5072800;28;20039;-81
2023/03/03 10:22:11;;;;;;;;;;;;;;;;;;5074067;28;20447;-81
2023/03/03 10:24:37;;;;;;;;;;;;;;;;;;5091906;28;19912;-82
2023/03/03 10:27:03;;;;;;;;;;;;;;;;;;5074338;28;19919;-81
2023/03/03 10:29:29;;;;;;;;;;;;;;;;;;5074206;28;20022;-81
2023/03/03 10:31:55;;;;;;;;;;;;;;;;;;5091930;28;19967;-82
2023/03/03 10:34:21;;;;;;;;;;;;;;;;;;5091762;28;19916;-81
2023/03/03 10:36:47;;;;;;;;;;;;;;;;;;5073614;28;20007;-81
2023/03/03 10:39:13;;;;;;;;;;;;;;;;;;5091879;28;19931;-81
2023/03/03 10:41:39;;;;;;;;;;;;;;;;;;5091813;28;19913;-81
2023/03/03 10:44:05;;;;;;;;;;;;;;;;;;5091409;28;19913;-81
2023/03/03 10:46:33;;;;;;;;;;;;;;;;;;5073936;28;19927;-81
2023/03/03 10:48:59;;;;;;;;;;;;;;;;;;5073154;28;19920;-81
2023/03/03 10:51:25;;;;;;;;;;;;;;;;;;5073345;28;19912;-81
2023/03/03 10:53:51;;;;;;;;;;;;;;;;;;5072579;28;19923;-81
2023/03/03 10:56:17;;;;;;;;;;;;;;;;;;5091445;28;19912;-80
2023/03/03 10:58:43;;;;;;;;;;;;;;;;;;5091559;28;20403;-82
2023/03/03 11:01:09;;;;;;;;;;;;;;;;;;5092112;28;19916;-82
2023/03/03 11:03:35;;;;;;;;;;;;;;;;;;5073170;28;20348;-79
2023/03/03 11:06:01;;;;;;;;;;;;;;;;;;5090977;28;19916;-81
2023/03/03 11:08:27;;;;;;;;;;;;;;;;;;5091280;28;19916;-80
2023/03/03 11:10:53;;;;;;;;;;;;;;;;;;5091116;28;20008;-81
2023/03/03 11:13:20;;;;;;;;;;;;;;;;;;5091620;28;19919;-81
2023/03/03 11:15:48;;;;;;;;;;;;;;;;;;5090686;28;19919;-81
2023/03/03 11:18:14;;;;;;;;;;;;;;;;;;5091073;28;19912;-81
2023/03/03 11:20:40;;;;;;;;;;;;;;;;;;5091262;28;19987;-82
2023/03/03 11:23:06;;;;;;;;;;;;;;;;;;5090929;28;19920;-82
2023/03/03 11:25:32;;;;;;;;;;;;;;;;;;5072313;28;19912;-80
2023/03/03 11:27:58;;;;;;;;;;;;;;;;;;5072925;28;19961;-80
2023/03/03 11:30:24;;;;;;;;;;;;;;;;;;5090995;28;19919;-82
2023/03/03 11:32:50;;;;;;;;;;;;;;;;;;5073165;28;19916;-82
2023/03/03 11:35:16;;;;;;;;;;;;;;;;;;5072687;28;19935;-81
2023/03/03 11:37:42;;;;;;;;;;;;;;;;;;5090889;28;19946;-81
2023/03/03 11:40:08;;;;;;;;;;;;;;;;;;5091361;28;20328;-81
2023/03/03 11:42:34;;;;;;;;;;;;;;;;;;5090920;28;19948;-81
2023/03/03 11:45:00;;;;;;;;;;;;;;;;;;5090917;28;19919;-81
2023/03/03 11:47:26;;;;;;;;;;;;;;;;;;5091196;28;19912;-79
2023/03/03 11:49:52;;;;;;;;;;;;;;;;;;5072341;28;20334;-82
2023/03/03 11:52:18;;;;;;;;;;;;;;;;;;5091304;28;19908;-81
2023/03/03 11:54:44;;;;;;;;;;;;;;;;;;5090059;28;20294;-82
2023/03/03 11:57:10;;;;;;;;;;;;;;;;;;5072380;28;19923;-81
2023/03/03 11:59:36;;;;;;;;;;;;;;;;;;5090827;28;20006;-80
2023/03/03 12:02:02;;;;;;;;;;;;;;;;;;5055165;28;20603;-80
2023/03/03 12:04:29;;;;;;;;;;;;;;;;;;5090254;28;20005;-80
2023/03/03 12:06:55;;;;;;;;;;;;;;;;;;5090686;28;19912;-82
2023/03/03 12:09:21;;;;;;;;;;;;;;;;;;5090372;28;20351;-81
2023/03/03 12:11:47;;;;;;;;;;;;;;;;;;5090280;28;20003;-80
2023/03/03 12:14:15;;;;;;;;;;;;;;;;;;5090325;28;19928;-81
2023/03/03 12:16:41;;;;;;;;;;;;;;;;;;5089662;28;20331;-81
2023/03/03 12:19:07;;;;;;;;;;;;;;;;;;5090081;28;19912;-81
2023/03/03 12:21:34;;;;;;;;;;;;;;;;;;5090591;28;19938;-81
2023/03/03 12:24:00;;;;;;;;;;;;;;;;;;5090329;28;20463;-80
2023/03/03 12:26:26;;;;;;;;;;;;;;;;;;5090628;28;19912;-80
2023/03/03 12:28:52;;;;;;;;;;;;;;;;;;5072415;28;19924;-80
2023/03/03 12:31:18;;;;;;;;;;;;;;;;;;5089904;28;19983;-80
2023/03/03 12:33:44;;;;;;;;;;;;;;;;;;5072702;28;19947;-82
2023/03/03 12:36:10;;;;;;;;;;;;;;;;;;5077799;28;19937;-78
2023/03/03 12:38:36;;;;;;;;;;;;;;;;;;5071329;28;19916;-80
2023/03/03 12:41:02;;;;;;;;;;;;;;;;;;5070181;28;20309;-81
2023/03/03 12:43:28;;;;;;;;;;;;;;;;;;5074288;28;19923;-80
2023/03/03 12:45:54;;;;;;;;;;;;;;;;;;5074652;28;19916;-80
2023/03/03 12:48:20;;;;;;;;;;;;;;;;;;5074597;28;20009;-80
2023/03/03 12:50:46;;;;;;;;;;;;;;;;;;5074097;28;19966;-81
2023/03/03 12:53:12;;;;;;;;;;;;;;;;;;5057032;28;19912;-81
2023/03/03 12:55:38;;;;;;;;;;;;;;;;;;5075182;28;19921;-82
2023/03/03 12:58:04;;;;;;;;;;;;;;;;;;5075871;28;20407;-81
2023/03/03 13:00:30;;;;;;;;;;;;;;;;;;5075622;28;19920;-81
2023/03/03 13:02:57;;;;;;;;;;;;;;;;;;5078630;28;20238;-80
2023/03/03 13:05:23;;;;;;;;;;;;;;;;;;5075135;28;19920;-80
2023/03/03 13:07:49;;;;;;;;;;;;;;;;;;5073564;28;19914;-80
2023/03/03 13:10:15;;;;;;;;;;;;;;;;;;5073249;28;19917;-81
2023/03/03 13:12:41;;;;;;;;;;;;;;;;;;5072783;28;20007;-81
2023/03/03 13:15:07;;;;;;;;;;;;;;;;;;5073031;28;19920;-82
2023/03/03 13:17:33;;;;;;;;;;;;;;;;;;5055176;28;19938;-80
2023/03/03 13:19:59;;;;;;;;;;;;;;;;;;5073234;28;19939;-82
2023/03/03 13:22:25;;;;;;;;;;;;;;;;;;5072786;28;19912;-80
2023/03/03 13:24:51;;;;;;;;;;;;;;;;;;5072238;28;19913;-81
2023/03/03 13:27:17;;;;;;;;;;;;;;;;;;5072267;28;19916;-81
2023/03/03 13:29:44;;;;;;;;;;;;;;;;;;5071857;28;19920;-80
2023/03/03 13:32:10;;;;;;;;;;;;;;;;;;5058905;28;19919;-81
2023/03/03 13:34:36;;;;;;;;;;;;;;;;;;5052637;28;20012;-82
2023/03/03 13:37:02;;;;;;;;;;;;;;;;;;5052837;28;19917;-81
2023/03/03 13:39:28;;;;;;;;;;;;;;;;;;5053142;28;19920;-81
2023/03/03 13:41:55;;;;;;;;;;;;;;;;;;5052471;28;20381;-81
2023/03/03 13:44:21;;;;;;;;;;;;;;;;;;5052100;28;19916;-81
2023/03/03 13:46:47;;;;;;;;;;;;;;;;;;5052174;28;20016;-81
2023/03/03 13:49:13;;;;;;;;;;;;;;;;;;5053094;28;19917;-81
2023/03/03 13:51:40;;;;;;;;;;;;;;;;;;5054084;28;20243;-80
2023/03/03 13:54:06;;;;;;;;;;;;;;;;;;5066699;28;20008;-81
2023/03/03 13:56:32;;;;;;;;;;;;;;;;;;5084120;28;20459;-81
2023/03/03 13:59:00;;;;;;;;;;;;;;;;;;5067149;28;19953;-80
2023/03/03 14:01:26;;;;;;;;;;;;;;;;;;5074746;28;19912;-80
2023/03/03 14:03:52;;;;;;;;;;;;;;;;;;5057018;28;19920;-81
2023/03/03 14:06:18;;;;;;;;;;;;;;;;;;5087190;28;19916;-80
2023/03/03 14:08:44;;;;;;;;;;;;;;;;;;5086117;28;19955;-79
2023/03/03 14:11:10;;;;;;;;;;;;;;;;;;5092974;28;19916;-81
2023/03/03 14:13:36;;;;;;;;;;;;;;;;;;5090551;28;19958;-81
2023/03/03 14:16:02;;;;;;;;;;;;;;;;;;5087308;28;19955;-80
2023/03/03 14:18:31;;;;;;;;;;;;;;;;;;5068244;28;19922;-81
2023/03/03 14:20:57;;;;;;;;;;;;;;;;;;5081489;28;20021;-81
2023/03/03 14:23:23;;;;;;;;;;;;;;;;;;5083746;28;19955;-81
2023/03/03 14:25:49;;;;;;;;;;;;;;;;;;5083317;28;19912;-81
2023/03/03 14:28:15;;;;;;;;;;;;;;;;;;5078536;28;19927;-81
2023/03/03 14:30:41;;;;;;;;;;;;;;;;;;5080676;28;19923;-80
2023/03/03 14:33:10;;;;;;;;;;;;;;;;;;5083563;28;19916;-80
2023/03/03 14:35:36;;;;;;;;;;;;;;;;;;5078279;28;19962;-80
2023/03/03 14:38:02;;;;;;;;;;;;;;;;;;5084317;28;19943;-80
2023/03/03 14:40:28;;;;;;;;;;;;;;;;;;5061426;28;19912;-80
2023/03/03 14:42:54;;;;;;;;;;;;;;;;;;5048005;28;19916;-81
2023/03/03 14:45:21;;;;;;;;;;;;;;;;;;5083169;28;20357;-81
2023/03/03 14:47:47;;;;;;;;;;;;;;;;;;5076764;28;20002;-80
2023/03/03 14:50:13;;;;;;;;;;;;;;;;;;5081641;28;20380;-81
2023/03/03 14:52:39;;;;;;;;;;;;;;;;;;5080637;28;19919;-81
2023/03/03 14:55:07;;;;;;;;;;;;;;;;;;5071238;28;20196;-80
2023/03/03 14:57:34;;;;;;;;;;;;;;;;;;5067095;28;19917;-81
2023/03/03 15:00:05;;;;;;;;;;;;;;;;;;5061053;28;20356;-81
2023/03/03 15:02:31;;;;;;;;;;;;;;;;;;5057823;28;20685;-79
2023/03/03 15:04:57;;;;;;;;;;;;;;;;;;5035937;28;20293;-82
2023/03/03 15:07:23;;;;;;;;;;;;;;;;;;5055083;28;19917;-81
2023/03/03 15:09:49;;;;;;;;;;;;;;;;;;5063537;28;19955;-80
2023/03/03 15:12:15;;;;;;;;;;;;;;;;;;5058243;28;19913;-79
2023/03/03 15:14:41;;;;;;;;;;;;;;;;;;5054359;28;20008;-79
2023/03/03 15:17:07;;;;;;;;;;;;;;;;;;5041404;28;19935;-80
2023/03/03 15:19:33;;;;;;;;;;;;;;;;;;5060579;28;20361;-80
2023/03/03 15:21:59;;;;;;;;;;;;;;;;;;5061229;28;19931;-81
2023/03/03 15:24:25;;;;;;;;;;;;;;;;;;5061133;28;19924;-80
2023/03/03 15:26:51;;;;;;;;;;;;;;;;;;5058114;28;19917;-80
2023/03/03 15:29:17;;;;;;;;;;;;;;;;;;5064600;28;20405;-80
2023/03/03 15:31:43;;;;;;;;;;;;;;;;;;5068073;28;19912;-80
2023/03/03 15:34:09;;;;;;;;;;;;;;;;;;5061208;28;20440;-81
2023/03/03 15:36:36;;;;;;;;;;;;;;;;;;5066067;28;19916;-80
2023/03/03 15:39:02;;;;;;;;;;;;;;;;;;5060522;28;19962;-80
2023/03/03 15:41:28;;;;;;;;;;;;;;;;;;5048446;28;20353;-81
2023/03/03 15:43:54;;;;;;;;;;;;;;;;;;5065716;28;19920;-80
2023/03/03 15:46:20;;;;;;;;;;;;;;;;;;5063230;28;19917;-80
2023/03/03 15:48:46;;;;;;;;;;;;;;;;;;5060334;28;19916;-81
2023/03/03 15:51:12;;;;;;;;;;;;;;;;;;5057678;28;20012;-80
2023/03/03 15:53:38;;;;;;;;;;;;;;;;;;5062981;28;19920;-80
2023/03/03 15:56:04;;;;;;;;;;;;;;;;;;5064587;28;20305;-82
2023/03/03 15:58:32;;;;;;;;;;;;;;;;;;5044775;28;19924;-81
2023/03/03 16:00:58;;;;;;;;;;;;;;;;;;5066139;28;19919;-81
2023/03/03 16:03:24;;;;;;;;;;;;;;;;;;5045339;28;19927;-81
2023/03/03 16:05:50;;;;;;;;;;;;;;;;;;5061178;28;19921;-81
2023/03/03 16:08:16;;;;;;;;;;;;;;;;;;5042054;28;19929;-81
2023/03/03 16:10:42;;;;;;;;;;;;;;;;;;5057912;28;19953;-80
2023/03/03 16:13:10;;;;;;;;;;;;;;;;;;5057373;28;20021;-82
2023/03/03 16:15:36;;;;;;;;;;;;;;;;;;5056313;28;20149;-81
2023/03/03 16:18:02;;;;;;;;;;;;;;;;;;5061418;28;20378;-80
2023/03/03 16:20:28;;;;;;;;;;;;;;;;;;5065973;28;19959;-80
2023/03/03 16:22:54;;;;;;;;;;;;;;;;;;5046647;28;20398;-80
2023/03/03 16:25:20;;;;;;;;;;;;;;;;;;5047188;28;19920;-81
2023/03/03 16:27:46;;;;;;;;;;;;;;;;;;5062724;28;20061;-81
2023/03/03 16:30:12;;;;;;;;;;;;;;;;;;5064583;28;19917;-83
2023/03/03 16:32:38;;;;;;;;;;;;;;;;;;5041092;28;20015;-81
2023/03/03 16:35:05;;;;;;;;;;;;;;;;;;5062593;28;19912;-82
2023/03/03 16:37:31;;;;;;;;;;;;;;;;;;5062327;28;20268;-82